Time;durP1;ratioP1;P1;durP2;ratioP2;P2;SDS_P1;SDS_P2;PMS_P1;PMS_P2;Temp;Humidity;BMP_temperature;BMP_pressure;BME280_temperature;BME280_humidity;BME280_pressure;Samples;Min_cycle;Max_cycle;Signal;HPM_P1;HPM_P2
2023/04/02 00:02:26;;;;;;;5.50;5.10;;;10.40;99.90;;;;;;5073209;28;20440;-56
2023/04/02 00:05:29;;;;;;;5.20;4.80;;;10.40;99.90;;;;;;5073027;28;20476;-55
2023/04/02 00:07:58;;;;;;;5.60;5.10;;;10.40;99.90;;;;;;5073044;28;20442;-55
2023/04/02 00:10:33;;;;;;;4.63;4.30;;;10.40;99.90;;;;;;5072745;28;20938;-55
2023/04/02 00:13:17;;;;;;;4.70;4.30;;;10.20;99.90;;;;;;5072988;28;20551;-55
2023/04/02 00:15:46;;;;;;;4.30;4.00;;;10.20;99.90;;;;;;5073118;28;20440;-55
2023/04/02 00:18:15;;;;;;;4.33;4.03;;;10.20;99.90;;;;;;5072633;28;20477;-56
2023/04/02 00:20:45;;;;;;;4.40;4.10;;;10.10;99.90;;;;;;5073039;28;20509;-55
2023/04/02 00:23:14;;;;;;;3.60;3.37;;;10.10;99.90;;;;;;5073197;28;20480;-55
2023/04/02 00:25:44;;;;;;;3.80;3.50;;;10.20;99.90;;;;;;5075973;28;20444;-55
2023/04/02 00:28:13;;;;;;;4.10;3.70;;;10.10;99.90;;;;;;5076585;28;20433;-56
2023/04/02 00:30:46;;;;;;;4.17;3.77;;;10.10;99.90;;;;;;5076708;28;20437;-55
2023/04/02 00:33:17;;;;;;;3.73;3.43;;;10.00;99.90;;;;;;5076646;28;20473;-55
2023/04/02 00:35:43;;;;;;;3.93;3.63;;;10.00;99.90;;;;;;5076670;28;20454;-55
2023/04/02 00:38:21;;;;;;;4.00;3.70;;;9.90;99.90;;;;;;5076305;28;20844;-55
2023/04/02 00:40:51;;;;;;;4.17;3.87;;;9.90;99.90;;;;;;5076243;28;20926;-55
2023/04/02 00:43:19;;;;;;;4.37;4.07;;;9.90;99.90;;;;;;5076390;28;20469;-55
2023/04/02 00:45:51;;;;;;;4.00;3.70;;;9.80;99.90;;;;;;5076148;28;20455;-55
2023/04/02 00:48:31;;;;;;;4.60;4.30;;;9.80;99.90;;;;;;5076394;28;20435;-55
2023/04/02 00:51:07;;;;;;;3.67;3.43;;;9.90;99.90;;;;;;5076352;28;20433;-55
2023/04/02 00:53:35;;;;;;;3.80;3.50;;;9.90;99.90;;;;;;5076274;28;20517;-55
2023/04/02 00:56:03;;;;;;;4.10;3.90;;;9.90;99.90;;;;;;5076156;28;20502;-55
2023/04/02 00:58:33;;;;;;;4.80;3.57;;;10.00;99.90;;;;;;5076064;28;20488;-55
2023/04/02 01:01:01;;;;;;;3.70;3.40;;;9.90;99.90;;;;;;5075903;28;20808;-55
2023/04/02 01:03:33;;;;;;;3.63;3.43;;;10.00;99.90;;;;;;5076069;28;20464;-55
2023/04/02 01:06:09;;;;;;;3.50;3.00;;;9.90;99.90;;;;;;5076158;28;20428;-55
2023/04/02 01:09:20;;;;;;;3.40;3.20;;;9.90;99.90;;;;;;5075924;28;20428;-54
2023/04/02 01:12:10;;;;;;;3.67;3.47;;;9.80;99.90;;;;;;5013813;28;20447;-54
2023/04/02 01:14:48;;;;;;;4.87;2.90;;;9.80;99.90;;;;;;5075859;28;20468;-54
2023/04/02 01:17:27;;;;;;;3.90;3.50;;;9.70;99.90;;;;;;5075687;28;20791;-54
2023/04/02 01:20:12;;;;;;;3.60;3.30;;;9.70;99.90;;;;;;5075725;28;20437;-55
2023/04/02 01:22:47;;;;;;;3.90;3.60;;;9.60;99.90;;;;;;5075693;28;20425;-55
2023/04/02 01:25:19;;;;;;;3.83;3.53;;;9.60;99.90;;;;;;5075778;28;20453;-54
2023/04/02 01:27:54;;;;;;;3.70;3.40;;;9.60;99.90;;;;;;5075885;28;20498;-54
2023/04/02 01:30:22;;;;;;;4.13;3.83;;;9.60;99.90;;;;;;5075395;28;20922;-54
2023/04/02 01:32:50;;;;;;;4.17;3.87;;;9.60;99.90;;;;;;5075432;28;20490;-55
2023/04/02 01:35:17;;;;;;;5.67;4.43;;;9.60;99.90;;;;;;5075114;28;20441;-55
2023/04/02 01:37:50;;;;;;;5.13;4.23;;;9.50;99.90;;;;;;5075354;28;20485;-55
2023/04/02 01:40:35;;;;;;;4.43;4.13;;;9.60;99.90;;;;;;5075190;28;20452;-55
2023/04/02 01:43:13;;;;;;;4.80;4.40;;;9.50;99.90;;;;;;5075568;28;20465;-55
2023/04/02 01:45:41;;;;;;;3.90;3.70;;;9.50;99.90;;;;;;5075458;28;20441;-55
2023/04/02 01:48:15;;;;;;;3.87;3.57;;;9.40;99.90;;;;;;5075312;28;20449;-54
2023/04/02 01:50:45;;;;;;;4.23;3.90;;;9.40;99.90;;;;;;5075315;28;20440;-55
2023/04/02 01:53:15;;;;;;;4.47;4.10;;;9.40;99.90;;;;;;5075158;28;20464;-54
2023/04/02 01:55:45;;;;;;;4.43;4.03;;;9.30;99.90;;;;;;5075156;28;20468;-54
2023/04/02 01:58:14;;;;;;;4.10;3.80;;;9.40;99.90;;;;;;5075016;28;20481;-54
2023/04/02 02:00:47;;;;;;;4.13;3.83;;;9.40;99.90;;;;;;5074957;28;20860;-55
2023/04/02 02:03:14;;;;;;;6.13;5.63;;;9.40;99.90;;;;;;5074859;28;20464;-55
2023/04/02 02:05:41;;;;;;;4.90;4.60;;;9.40;99.90;;;;;;5074983;28;20444;-55
2023/04/02 02:08:25;;;;;;;5.43;5.03;;;9.40;99.90;;;;;;5074620;28;20455;-55
2023/04/02 02:10:51;;;;;;;5.60;5.20;;;9.30;99.90;;;;;;5075272;28;20532;-55
2023/04/02 02:13:18;;;;;;;5.10;4.70;;;9.30;99.90;;;;;;5074748;28;20468;-55
2023/04/02 02:15:47;;;;;;;6.00;5.40;;;9.30;99.90;;;;;;5074650;28;20440;-55
2023/04/02 02:18:16;;;;;;;5.77;5.30;;;9.30;99.90;;;;;;5074598;28;20529;-55
2023/04/02 02:20:43;;;;;;;6.43;5.80;;;9.30;99.90;;;;;;5074654;28;20460;-55
2023/04/02 02:23:11;;;;;;;6.10;5.60;;;9.30;99.90;;;;;;5074496;28;20461;-55
2023/04/02 02:25:39;;;;;;;6.17;5.70;;;9.30;99.90;;;;;;5074473;28;20445;-55
2023/04/02 02:28:09;;;;;;;6.73;6.23;;;9.30;99.90;;;;;;5074185;28;20444;-55
2023/04/02 02:30:40;;;;;;;6.57;6.07;;;9.30;99.90;;;;;;5074096;28;20965;-55
2023/04/02 02:33:15;;;;;;;6.50;5.70;;;9.30;99.90;;;;;;5074676;28;20468;-54
2023/04/02 02:35:48;;;;;;;6.53;5.93;;;9.30;99.90;;;;;;5076903;28;20470;-55
2023/04/02 02:38:41;;;;;;;6.50;6.00;;;9.20;99.90;;;;;;5076748;28;20484;-55
2023/04/02 02:41:16;;;;;;;5.77;5.27;;;9.20;99.90;;;;;;5074529;28;20451;-56
2023/04/02 02:43:52;;;;;;;5.70;5.20;;;9.20;99.90;;;;;;5074131;28;20468;-55
2023/04/02 02:46:22;;;;;;;5.80;5.27;;;9.20;99.90;;;;;;5073917;28;20478;-55
2023/04/02 02:48:53;;;;;;;5.20;4.80;;;9.20;99.90;;;;;;5073511;28;20445;-55
2023/04/02 02:51:26;;;;;;;6.20;5.70;;;9.10;99.90;;;;;;5073705;28;20938;-55
2023/04/02 02:53:58;;;;;;;6.00;5.53;;;9.00;99.90;;;;;;5073847;28;20496;-55
2023/04/02 02:56:26;;;;;;;5.77;5.30;;;8.90;99.90;;;;;;5074528;28;20437;-55
2023/04/02 02:58:54;;;;;;;5.90;5.30;;;9.00;99.90;;;;;;5073503;28;20994;-55
2023/04/02 03:01:21;;;;;;;5.80;5.30;;;8.90;99.90;;;;;;5073823;28;20455;-55
2023/04/02 03:03:52;;;;;;;5.53;5.13;;;8.90;99.90;;;;;;5073684;28;20469;-55
2023/04/02 03:06:19;;;;;;;5.50;5.10;;;8.90;99.90;;;;;;5073474;28;20911;-55
2023/04/02 03:08:51;;;;;;;4.93;4.50;;;8.90;99.90;;;;;;5073652;28;20440;-55
2023/04/02 03:11:26;;;;;;;5.37;4.80;;;8.90;99.90;;;;;;5073886;28;20487;-56
2023/04/02 03:13:58;;;;;;;5.23;4.83;;;8.90;99.90;;;;;;5074039;28;20559;-55
2023/04/02 03:16:32;;;;;;;6.40;5.53;;;8.90;99.90;;;;;;5073740;28;20465;-55
2023/04/02 03:19:04;;;;;;;5.50;5.10;;;8.90;99.90;;;;;;5073613;28;20502;-55
2023/04/02 03:21:36;;;;;;;5.73;5.23;;;8.90;99.90;;;;;;5073389;28;20922;-55
2023/04/02 03:24:09;;;;;;;5.43;5.03;;;8.90;99.90;;;;;;5073710;28;20487;-55
2023/04/02 03:26:40;;;;;;;4.70;4.40;;;8.90;99.90;;;;;;5073530;28;20444;-55
2023/04/02 03:29:18;;;;;;;5.50;4.90;;;8.90;99.90;;;;;;5073267;28;20425;-55
2023/04/02 03:31:48;;;;;;;5.10;4.80;;;8.90;99.90;;;;;;5073530;28;20432;-55
2023/04/02 03:34:24;;;;;;;4.00;3.70;;;8.90;99.90;;;;;;5073511;28;20477;-55
2023/04/02 03:36:57;;;;;;;4.70;4.03;;;8.90;99.90;;;;;;5073188;28;20899;-55
2023/04/02 03:39:29;;;;;;;4.70;4.40;;;8.90;99.90;;;;;;5072883;28;20570;-55
2023/04/02 03:42:01;;;;;;;4.10;3.80;;;8.80;99.90;;;;;;5072794;28;21005;-55
2023/04/02 03:44:33;;;;;;;4.50;4.20;;;8.80;99.90;;;;;;5073588;28;20465;-55
2023/04/02 03:47:05;;;;;;;4.43;4.03;;;8.80;99.90;;;;;;5073035;28;20968;-55
2023/04/02 03:49:38;;;;;;;4.60;4.30;;;8.80;99.90;;;;;;5073279;28;20417;-55
2023/04/02 03:52:09;;;;;;;5.77;5.37;;;8.80;99.90;;;;;;5072985;28;20441;-55
2023/04/02 03:54:36;;;;;;;5.90;5.40;;;8.70;99.90;;;;;;5073268;28;20467;-55
2023/04/02 03:57:04;;;;;;;5.97;5.47;;;8.70;99.90;;;;;;5072915;28;20935;-55
2023/04/02 03:59:38;;;;;;;6.30;5.80;;;8.70;99.90;;;;;;5076076;28;20484;-56
2023/04/02 04:02:15;;;;;;;5.77;5.20;;;8.70;99.90;;;;;;5077445;28;20431;-55
2023/04/02 04:04:45;;;;;;;6.77;6.17;;;8.70;99.90;;;;;;5077170;28;20487;-55
2023/04/02 04:07:20;;;;;;;6.07;5.57;;;8.60;99.90;;;;;;5077178;28;20455;-55
2023/04/02 04:09:50;;;;;;;6.43;5.93;;;8.60;99.90;;;;;;5077234;28;20448;-55
2023/04/02 04:12:26;;;;;;;5.57;5.10;;;8.60;99.90;;;;;;5077362;28;20448;-55
2023/04/02 04:14:57;;;;;;;9.37;5.33;;;8.60;99.90;;;;;;5077069;28;20464;-55
2023/04/02 04:17:30;;;;;;;5.90;5.50;;;8.60;99.90;;;;;;5077010;28;20512;-55
2023/04/02 04:20:06;;;;;;;5.33;4.93;;;8.60;99.90;;;;;;5076948;28;20521;-55
2023/04/02 04:22:33;;;;;;;5.77;5.27;;;8.60;99.90;;;;;;5076915;28;20424;-55
2023/04/02 04:25:03;;;;;;;6.00;5.50;;;8.50;99.90;;;;;;5076669;28;20448;-55
2023/04/02 04:27:37;;;;;;;4.90;4.50;;;8.50;99.90;;;;;;5076801;28;20536;-55
2023/04/02 04:30:13;;;;;;;5.07;4.60;;;8.50;99.90;;;;;;5076769;28;20428;-55
2023/04/02 04:32:49;;;;;;;6.10;5.60;;;8.60;99.90;;;;;;5076627;28;20432;-56
2023/04/02 04:35:24;;;;;;;6.57;6.00;;;8.60;99.90;;;;;;5076723;28;20464;-55
2023/04/02 04:37:58;;;;;;;6.57;6.00;;;8.50;99.90;;;;;;5076593;28;20790;-55
2023/04/02 04:40:28;;;;;;;6.13;5.70;;;8.50;99.90;;;;;;5076174;28;21020;-55
2023/04/02 04:42:59;;;;;;;5.67;5.20;;;8.50;99.90;;;;;;5076615;28;20826;-55
2023/04/02 04:45:37;;;;;;;5.70;5.20;;;8.60;99.90;;;;;;5076427;28;20439;-55
2023/04/02 04:48:08;;;;;;;6.43;5.93;;;8.60;99.90;;;;;;5076449;28;20428;-55
2023/04/02 04:50:40;;;;;;;6.00;5.47;;;8.60;99.90;;;;;;5076002;28;20775;-54
2023/04/02 04:53:13;;;;;;;6.17;5.67;;;8.50;99.90;;;;;;5076287;28;20464;-55
2023/04/02 04:55:44;;;;;;;5.67;5.17;;;8.40;99.90;;;;;;5076265;28;20436;-55
2023/04/02 04:58:18;;;;;;;5.83;5.33;;;8.40;99.90;;;;;;5076165;28;20476;-55
2023/04/02 05:00:56;;;;;;;5.03;4.63;;;8.40;99.90;;;;;;5076098;28;20523;-55
2023/04/02 05:03:30;;;;;;;5.60;5.10;;;8.40;99.90;;;;;;5075941;28;20460;-55
2023/04/02 05:06:06;;;;;;;7.23;6.53;;;8.40;99.90;;;;;;5075940;28;20436;-55
2023/04/02 05:08:36;;;;;;;6.57;5.97;;;8.30;99.90;;;;;;5076045;28;20829;-55
2023/04/02 05:11:07;;;;;;;7.03;6.43;;;8.30;99.90;;;;;;5075160;28;20453;-55
2023/04/02 05:13:40;;;;;;;7.80;7.10;;;8.30;99.90;;;;;;5075854;28;20826;-55
2023/04/02 05:16:13;;;;;;;8.70;7.50;;;8.30;99.90;;;;;;5075862;28;20499;-55
2023/04/02 05:18:44;;;;;;;8.80;6.70;;;8.20;99.90;;;;;;5075826;28;20464;-55
2023/04/02 05:21:18;;;;;;;8.00;7.00;;;8.20;99.90;;;;;;5075534;28;20857;-55
2023/04/02 05:23:50;;;;;;;6.90;6.30;;;8.10;99.90;;;;;;5075745;28;20476;-55
2023/04/02 05:26:20;;;;;;;6.90;6.30;;;8.10;99.90;;;;;;5075740;28;20448;-55
2023/04/02 05:28:54;;;;;;;7.80;7.00;;;8.10;99.90;;;;;;5075693;28;20821;-55
2023/04/02 05:31:25;;;;;;;7.17;6.10;;;8.10;99.90;;;;;;5075572;28;20429;-55
2023/04/02 05:33:53;;;;;;;7.23;6.63;;;8.10;99.90;;;;;;5075374;28;20472;-55
2023/04/02 05:36:23;;;;;;;6.80;6.10;;;8.10;99.90;;;;;;5075456;28;20448;-55
2023/04/02 05:38:51;;;;;;;7.07;6.37;;;8.10;99.90;;;;;;5075084;28;20490;-55
2023/04/02 05:41:25;;;;;;;7.57;6.87;;;8.10;99.90;;;;;;5075390;28;20452;-55
2023/04/02 05:44:05;;;;;;;7.50;6.80;;;8.00;99.90;;;;;;5075302;28;20468;-55
2023/04/02 05:46:37;;;;;;;9.73;7.53;;;8.10;99.90;;;;;;5075106;28;20433;-55
2023/04/02 05:49:09;;;;;;;7.03;6.43;;;8.10;99.90;;;;;;5075076;28;20922;-55
2023/04/02 05:51:43;;;;;;;8.07;7.27;;;8.10;99.90;;;;;;5075307;28;20447;-54
2023/04/02 05:54:22;;;;;;;8.00;7.20;;;8.10;99.90;;;;;;5075275;28;20537;-55
2023/04/02 05:56:52;;;;;;;7.77;7.07;;;8.10;99.90;;;;;;5074793;28;20424;-55
2023/04/02 05:59:22;;;;;;;7.60;6.90;;;8.10;99.90;;;;;;5074942;28;20579;-55
2023/04/02 06:01:54;;;;;;;8.33;7.60;;;8.10;99.90;;;;;;5075166;28;20440;-55
2023/04/02 06:04:26;;;;;;;7.43;6.73;;;8.10;99.90;;;;;;5074709;28;20469;-55
2023/04/02 06:07:01;;;;;;;7.07;6.47;;;8.10;99.90;;;;;;5074913;28;20437;-54
2023/04/02 06:09:36;;;;;;;7.57;6.97;;;8.10;99.90;;;;;;5075022;28;20432;-55
2023/04/02 06:12:16;;;;;;;8.20;7.40;;;8.10;99.90;;;;;;5074831;28;20515;-55
2023/04/02 06:14:43;;;;;;;8.50;7.53;;;8.10;99.90;;;;;;5074927;28;20473;-54
2023/04/02 06:17:14;;;;;;;8.13;7.23;;;8.00;99.90;;;;;;5074637;28;20448;-55
2023/04/02 06:19:41;;;;;;;8.13;7.33;;;8.00;99.90;;;;;;5074604;28;20465;-55
2023/04/02 06:22:18;;;;;;;10.33;9.10;;;8.00;99.90;;;;;;5073561;28;20453;-54
2023/04/02 06:24:47;;;;;;;10.90;8.50;;;8.00;99.90;;;;;;5074597;28;20824;-54
2023/04/02 06:27:18;;;;;;;9.00;8.10;;;8.00;99.90;;;;;;5074598;28;20463;-54
2023/04/02 06:29:50;;;;;;;10.70;9.60;;;8.00;99.90;;;;;;5074489;28;20429;-54
2023/04/02 06:32:19;;;;;;;9.60;8.03;;;8.00;99.90;;;;;;5075008;28;20436;-54
2023/04/02 06:34:46;;;;;;;10.13;8.30;;;8.00;99.90;;;;;;5074273;28;20557;-55
2023/04/02 06:37:21;;;;;;;10.47;9.20;;;8.00;99.90;;;;;;5074374;28;20486;-54
2023/04/02 06:39:48;;;;;;;10.63;8.97;;;7.90;99.90;;;;;;5073860;28;20487;-54
2023/04/02 06:42:19;;;;;;;10.13;9.13;;;7.90;99.90;;;;;;5074259;28;20449;-55
2023/04/02 06:44:46;;;;;;;10.07;8.10;;;7.90;99.90;;;;;;5074139;28;20468;-54
2023/04/02 06:47:22;;;;;;;13.20;9.47;;;7.90;99.90;;;;;;5074061;28;20445;-54
2023/04/02 06:49:53;;;;;;;12.67;9.77;;;7.90;99.90;;;;;;5073783;28;20923;-54
2023/04/02 06:52:25;;;;;;;11.67;9.60;;;7.90;99.90;;;;;;5074088;28;20417;-54
2023/04/02 06:54:52;;;;;;;12.33;9.87;;;7.90;99.90;;;;;;5074071;28;20472;-54
2023/04/02 06:57:19;;;;;;;12.47;9.10;;;8.00;99.90;;;;;;5073631;28;20934;-55
2023/04/02 06:59:45;;;;;;;13.67;10.10;;;8.00;99.90;;;;;;5073942;28;20511;-55
2023/04/02 07:02:24;;;;;;;11.60;9.43;;;8.00;99.90;;;;;;5073798;28;20449;-54
2023/04/02 07:04:51;;;;;;;16.63;9.80;;;8.00;99.90;;;;;;5073755;28;20479;-55
2023/04/02 07:07:18;;;;;;;11.50;9.90;;;8.00;99.90;;;;;;5073825;28;20445;-55
2023/04/02 07:09:46;;;;;;;13.00;9.50;;;8.00;99.90;;;;;;5073755;28;20558;-55
2023/04/02 07:12:13;;;;;;;10.13;9.07;;;8.00;99.90;;;;;;5073700;28;20480;-55
2023/04/02 07:14:40;;;;;;;11.23;10.07;;;8.00;99.90;;;;;;5073648;28;20465;-55
2023/04/02 07:17:07;;;;;;;11.23;10.07;;;8.00;99.90;;;;;;5073577;28;20448;-55
2023/04/02 07:19:33;;;;;;;14.77;9.80;;;8.00;99.90;;;;;;5073341;28;21063;-55
2023/04/02 07:22:00;;;;;;;12.73;10.10;;;7.90;99.90;;;;;;5073621;28;20455;-55
2023/04/02 07:24:27;;;;;;;13.70;10.77;;;7.90;99.90;;;;;;5073333;28;20530;-55
2023/04/02 07:26:55;;;;;;;13.03;9.57;;;7.90;99.90;;;;;;5073529;28;20451;-55
2023/04/02 07:29:21;;;;;;;13.03;9.60;;;7.90;99.90;;;;;;5074211;28;20449;-55
2023/04/02 07:31:48;;;;;;;12.50;9.43;;;7.90;99.90;;;;;;5073155;28;20448;-55
2023/04/02 07:34:15;;;;;;;11.20;9.80;;;8.00;99.90;;;;;;5072980;28;20465;-55
2023/04/02 07:36:41;;;;;;;13.70;9.97;;;7.90;99.90;;;;;;5073246;28;20452;-55
2023/04/02 07:39:09;;;;;;;14.23;10.83;;;8.00;99.90;;;;;;5073299;28;20463;-55
2023/04/02 07:41:51;;;;;;;13.40;10.70;;;8.00;99.90;;;;;;5073173;28;20451;-55
2023/04/02 07:44:19;;;;;;;12.43;9.80;;;8.00;99.90;;;;;;5073261;28;20472;-56
2023/04/02 07:46:45;;;;;;;13.50;10.03;;;7.90;99.90;;;;;;5073335;28;20556;-55
2023/04/02 07:49:12;;;;;;;16.77;9.33;;;7.90;99.90;;;;;;5073228;28;20447;-55
2023/04/02 07:51:39;;;;;;;11.00;8.40;;;7.90;99.90;;;;;;5073021;28;20843;-55
2023/04/02 07:54:08;;;;;;;10.33;8.50;;;7.90;99.90;;;;;;5073124;28;20500;-55
2023/04/02 07:56:36;;;;;;;11.13;9.13;;;7.90;99.90;;;;;;5073286;28;20501;-55
2023/04/02 07:59:03;;;;;;;10.43;8.57;;;7.90;99.90;;;;;;5073138;28;20861;-55
2023/04/02 08:01:34;;;;;;;11.53;8.13;;;7.90;99.90;;;;;;5072803;28;20488;-55
2023/04/02 08:04:01;;;;;;;11.73;7.80;;;7.90;99.90;;;;;;5072810;28;20971;-55
2023/04/02 08:06:28;;;;;;;9.37;7.20;;;7.90;99.90;;;;;;5072955;28;20449;-55
2023/04/02 08:08:55;;;;;;;8.43;7.53;;;7.90;99.90;;;;;;5072750;28;20965;-55
2023/04/02 08:11:22;;;;;;;9.47;7.30;;;8.00;99.90;;;;;;5073087;28;20461;-55
2023/04/02 08:13:49;;;;;;;7.30;6.60;;;8.00;99.90;;;;;;5072932;28;20464;-55
2023/04/02 08:16:15;;;;;;;11.53;7.30;;;8.00;99.90;;;;;;5072532;28;20961;-55
2023/04/02 08:18:46;;;;;;;8.87;7.67;;;8.00;99.90;;;;;;5073015;28;20460;-55
2023/04/02 08:21:13;;;;;;;7.97;7.17;;;8.00;99.90;;;;;;5072642;28;20464;-55
2023/04/02 08:23:39;;;;;;;8.43;7.53;;;8.00;99.90;;;;;;5072625;28;20483;-55
2023/04/02 08:26:07;;;;;;;7.17;6.57;;;8.10;99.90;;;;;;5072950;28;20480;-55
2023/04/02 08:28:34;;;;;;;8.00;6.83;;;8.10;99.90;;;;;;5072876;28;20444;-55
2023/04/02 08:31:01;;;;;;;9.97;7.07;;;8.20;99.90;;;;;;5072940;28;20480;-55
2023/04/02 08:33:28;;;;;;;8.07;6.97;;;8.20;99.90;;;;;;5072748;28;20467;-54
2023/04/02 08:35:56;;;;;;;8.00;7.20;;;8.30;99.90;;;;;;5072668;28;20456;-55
2023/04/02 08:38:22;;;;;;;9.93;7.10;;;8.30;99.90;;;;;;5072633;28;20958;-55
2023/04/02 08:40:51;;;;;;;9.07;7.20;;;8.30;99.90;;;;;;5072367;28;21017;-55
2023/04/02 08:43:33;;;;;;;8.00;7.20;;;8.10;99.90;;;;;;5072703;28;20476;-55
2023/04/02 08:46:09;;;;;;;8.53;7.20;;;8.20;99.90;;;;;;5074625;28;20444;-55
2023/04/02 08:48:39;;;;;;;8.63;6.83;;;8.30;99.90;;;;;;5076408;28;20482;-55
2023/04/02 08:51:15;;;;;;;9.70;6.87;;;8.40;99.90;;;;;;5076356;28;20445;-55
2023/04/02 08:53:41;;;;;;;8.70;7.43;;;8.40;99.90;;;;;;5076226;28;20529;-55
2023/04/02 08:56:16;;;;;;;9.83;6.67;;;8.50;99.90;;;;;;5076226;28;20451;-55
2023/04/02 08:58:46;;;;;;;8.63;6.93;;;8.60;99.90;;;;;;5076974;28;20436;-55
2023/04/02 09:01:21;;;;;;;12.57;7.93;;;8.60;99.90;;;;;;5076091;28;20469;-55
2023/04/02 09:03:50;;;;;;;9.50;7.67;;;8.60;99.90;;;;;;5076045;28;20476;-55
2023/04/02 09:06:20;;;;;;;9.23;6.70;;;8.70;99.90;;;;;;5075836;28;20536;-55
2023/04/02 09:08:50;;;;;;;9.73;6.80;;;8.70;99.90;;;;;;5076237;28;20464;-55
2023/04/02 09:11:23;;;;;;;7.53;6.30;;;8.70;99.90;;;;;;5076191;28;20474;-55
2023/04/02 09:13:55;;;;;;;6.70;6.10;;;8.70;99.90;;;;;;5076059;28;20475;-55
2023/04/02 09:16:35;;;;;;;7.77;5.80;;;8.70;99.90;;;;;;5076066;28;20493;-55
2023/04/02 09:19:03;;;;;;;9.57;6.70;;;8.70;99.90;;;;;;5076125;28;20451;-55
2023/04/02 09:21:35;;;;;;;8.70;6.20;;;8.70;99.90;;;;;;5075925;28;20485;-55
2023/04/02 09:24:03;;;;;;;7.40;6.30;;;8.70;99.90;;;;;;5075908;28;20531;-55
2023/04/02 09:26:32;;;;;;;7.23;6.63;;;8.70;99.90;;;;;;5075440;28;21000;-55
2023/04/02 09:29:07;;;;;;;15.60;10.17;;;8.70;99.90;;;;;;5075652;28;20456;-55
2023/04/02 09:31:38;;;;;;;11.07;9.33;;;8.90;99.90;;;;;;5075677;28;20860;-55
2023/04/02 09:34:27;;;;;;;19.50;9.40;;;9.00;99.90;;;;;;5075356;28;20843;-55
2023/04/02 09:36:55;;;;;;;16.53;13.50;;;9.10;99.90;;;;;;5075266;28;20417;-55
2023/04/02 09:39:25;;;;;;;8.80;7.87;;;9.20;99.90;;;;;;5075179;28;20455;-55
2023/04/02 09:41:52;;;;;;;8.17;7.27;;;9.30;99.90;;;;;;5075321;28;20563;-56
2023/04/02 09:44:22;;;;;;;11.30;7.00;;;9.30;99.90;;;;;;5075108;28;20479;-55
2023/04/02 09:46:55;;;;;;;7.43;6.73;;;9.30;99.90;;;;;;5075654;28;20456;-55
2023/04/02 09:49:25;;;;;;;7.47;6.83;;;9.30;99.80;;;;;;5075007;28;20939;-55
2023/04/02 09:52:27;;;;;;;8.40;7.07;;;9.30;99.60;;;;;;5075508;28;20432;-57
2023/04/02 09:55:20;;;;;;;7.20;6.50;;;9.40;99.90;;;;;;5013058;28;20474;-56
2023/04/02 09:57:49;;;;;;;9.03;7.93;;;9.50;99.80;;;;;;5073829;28;20461;-56
2023/04/02 10:00:20;;;;;;;8.00;7.20;;;9.50;99.70;;;;;;5074838;28;20986;-56
2023/04/02 10:02:59;;;;;;;9.13;8.27;;;9.50;99.00;;;;;;5074796;28;20927;-56
2023/04/02 10:05:26;;;;;;;8.80;7.97;;;9.50;98.90;;;;;;5075096;28;20600;-56
2023/04/02 10:07:55;;;;;;;8.97;8.27;;;9.50;98.70;;;;;;5074981;28;20449;-55
2023/04/02 10:10:26;;;;;;;10.70;8.20;;;9.50;99.10;;;;;;5075475;28;20448;-55
2023/04/02 10:12:59;;;;;;;9.03;8.23;;;9.60;99.10;;;;;;5075286;28;20476;-56
2023/04/02 10:15:33;;;;;;;8.27;7.47;;;9.60;98.80;;;;;;5074808;28;20528;-56
2023/04/02 10:18:07;;;;;;;16.87;10.60;;;9.60;99.00;;;;;;5074828;28;20421;-56
2023/04/02 10:20:38;;;;;;;12.70;8.20;;;9.80;99.90;;;;;;5074552;28;20471;-56
2023/04/02 10:23:06;;;;;;;8.40;7.73;;;10.00;99.50;;;;;;5074630;28;20472;-56
2023/04/02 10:25:40;;;;;;;12.73;8.10;;;10.10;99.30;;;;;;5074302;28;20977;-56
2023/04/02 10:28:13;;;;;;;10.40;9.23;;;10.30;98.70;;;;;;5074273;28;20802;-56
2023/04/02 10:30:52;;;;;;;11.30;7.53;;;10.40;98.30;;;;;;5074594;28;20445;-56
2023/04/02 10:33:25;;;;;;;7.60;6.83;;;10.60;98.10;;;;;;5074257;28;20472;-56
2023/04/02 10:35:55;;;;;;;7.60;6.23;;;10.70;97.70;;;;;;5074478;28;20433;-56
2023/04/02 10:38:31;;;;;;;8.03;7.03;;;10.90;97.10;;;;;;5074191;28;20893;-57
2023/04/02 10:41:00;;;;;;;6.67;6.13;;;10.80;96.50;;;;;;5074239;28;20500;-56
2023/04/02 10:43:38;;;;;;;6.43;5.93;;;10.90;96.50;;;;;;5074162;28;20473;-56
2023/04/02 10:46:12;;;;;;;6.57;5.90;;;10.90;96.00;;;;;;5074222;28;20429;-56
2023/04/02 10:48:46;;;;;;;7.23;5.70;;;11.00;95.80;;;;;;5074147;28;20440;-56
2023/04/02 10:51:24;;;;;;;7.77;5.30;;;11.00;95.90;;;;;;5074345;28;20436;-56
2023/04/02 10:53:57;;;;;;;5.97;5.50;;;11.00;95.50;;;;;;5073873;28;20551;-56
2023/04/02 10:56:26;;;;;;;5.70;5.20;;;11.10;95.50;;;;;;5073794;28;20899;-56
2023/04/02 10:58:57;;;;;;;5.67;5.10;;;11.20;94.90;;;;;;5073998;28;20448;-56
2023/04/02 11:01:28;;;;;;;5.20;4.77;;;11.30;95.00;;;;;;5073732;28;20468;-56
2023/04/02 11:03:58;;;;;;;6.87;6.17;;;11.30;94.90;;;;;;5073849;28;20475;-57
2023/04/02 11:06:29;;;;;;;4.00;3.70;;;11.40;94.90;;;;;;5073918;28;20460;-56
2023/04/02 11:09:03;;;;;;;6.23;5.07;;;11.50;94.50;;;;;;5073347;28;20433;-56
2023/04/02 11:11:35;;;;;;;5.47;4.70;;;11.60;94.30;;;;;;5073796;28;20464;-57
2023/04/02 11:14:05;;;;;;;6.90;5.07;;;11.60;94.00;;;;;;5073735;28;20575;-57
2023/04/02 11:16:32;;;;;;;4.73;4.20;;;11.70;93.70;;;;;;5073563;28;20843;-56
2023/04/02 11:19:22;;;;;;;4.90;4.50;;;11.80;93.50;;;;;;5073778;28;20820;-56
2023/04/02 11:21:51;;;;;;;4.53;4.10;;;11.80;92.90;;;;;;5073725;28;20468;-56
2023/04/02 11:24:31;;;;;;;5.43;3.87;;;11.90;92.90;;;;;;5073573;28;20502;-56
2023/04/02 11:27:15;;;;;;;4.33;3.93;;;11.90;92.70;;;;;;5073772;28;20436;-56
2023/04/02 11:29:45;;;;;;;5.70;3.70;;;11.90;92.30;;;;;;5073318;28;20902;-56
2023/04/02 11:32:35;;;;;;;7.23;3.97;;;11.90;92.70;;;;;;5073517;28;20456;-56
2023/04/02 11:35:24;;;;;;;6.37;3.60;;;11.80;92.70;;;;;;5074502;28;20433;-61
2023/04/02 11:37:53;;;;;;;5.13;3.90;;;11.90;92.50;;;;;;5076717;28;20824;-56
2023/04/02 11:40:46;;;;;;;3.90;3.23;;;11.70;92.30;;;;;;5075743;28;20456;-56
2023/04/02 11:43:48;;;;;;;5.10;4.30;;;11.80;92.70;;;;;;5058862;28;20476;-56
2023/04/02 11:46:38;;;;;;;4.03;3.63;;;11.80;92.00;;;;;;5073311;28;20452;-56
2023/04/02 11:49:36;;;;;;;4.30;3.63;;;11.80;92.50;;;;;;5073319;28;20449;-56
2023/04/02 11:52:04;;;;;;;3.93;3.63;;;11.80;92.60;;;;;;5072505;28;20460;-56
2023/04/02 11:54:37;;;;;;;3.93;3.50;;;11.90;92.40;;;;;;5073250;28;20469;-56
2023/04/02 11:57:18;;;;;;;7.30;3.77;;;12.00;92.30;;;;;;5073449;28;20433;-56
2023/04/02 11:59:58;;;;;;;4.27;3.83;;;12.00;92.00;;;;;;5073418;28;20429;-56
2023/04/02 12:02:28;;;;;;;4.70;4.10;;;12.10;91.90;;;;;;5073622;28;20495;-56
2023/04/02 12:05:15;;;;;;;4.77;3.57;;;12.00;91.60;;;;;;5073540;28;20461;-56
2023/04/02 12:08:03;;;;;;;5.10;4.33;;;12.10;91.70;;;;;;5073536;28;20428;-56
2023/04/02 12:10:34;;;;;;;4.90;4.13;;;12.10;91.50;;;;;;5073183;28;20915;-56
2023/04/02 12:13:02;;;;;;;3.53;3.23;;;12.10;91.50;;;;;;5074140;28;20465;-55
2023/04/02 12:15:34;;;;;;;4.17;3.33;;;12.10;91.20;;;;;;5073440;28;20449;-56
2023/04/02 12:18:11;;;;;;;4.80;4.00;;;12.10;91.20;;;;;;5073333;28;20425;-56
2023/04/02 12:20:38;;;;;;;4.20;3.90;;;12.10;91.00;;;;;;5076241;28;20478;-55
2023/04/02 12:23:05;;;;;;;5.83;4.60;;;12.10;90.90;;;;;;5077056;28;20473;-57
2023/04/02 12:25:38;;;;;;;3.63;3.10;;;12.10;91.00;;;;;;5077056;28;20452;-56
2023/04/02 12:28:18;;;;;;;2.90;2.60;;;12.10;90.80;;;;;;5076969;28;20432;-56
2023/04/02 12:30:46;;;;;;;3.93;3.43;;;12.20;91.00;;;;;;5076674;28;20436;-56
2023/04/02 12:33:26;;;;;;;8.03;3.27;;;12.20;90.80;;;;;;5077012;28;20465;-57
2023/04/02 12:35:57;;;;;;;5.10;2.90;;;12.20;90.20;;;;;;5076938;28;20478;-56
2023/04/02 12:38:26;;;;;;;2.90;2.70;;;12.20;90.20;;;;;;5076696;28;20456;-56
2023/04/02 12:40:53;;;;;;;3.57;3.07;;;12.30;90.60;;;;;;5076338;28;20803;-56
2023/04/02 12:43:29;;;;;;;4.20;3.80;;;12.40;90.20;;;;;;5076329;28;20479;-56
2023/04/02 12:45:58;;;;;;;5.90;3.40;;;12.40;89.50;;;;;;5076734;28;20486;-56
2023/04/02 12:48:26;;;;;;;5.13;4.23;;;12.40;89.90;;;;;;5076354;28;20445;-57
2023/04/02 12:50:53;;;;;;;5.33;3.67;;;12.50;89.80;;;;;;5075857;28;20845;-56
2023/04/02 12:53:22;;;;;;;5.03;4.50;;;12.60;89.90;;;;;;5076396;28;20514;-57
2023/04/02 12:55:51;;;;;;;9.03;4.37;;;12.60;89.00;;;;;;5076422;28;20448;-56
2023/04/02 12:58:41;;;;;;;6.13;3.83;;;12.70;88.90;;;;;;5076237;28;20444;-56
2023/04/02 13:01:13;;;;;;;6.77;4.23;;;12.70;88.70;;;;;;5071764;28;21014;-56
2023/04/02 13:03:40;;;;;;;6.00;4.10;;;12.60;88.70;;;;;;5075821;28;20475;-57
2023/04/02 13:06:21;;;;;;;6.10;4.10;;;12.50;88.80;;;;;;5075988;28;20547;-58
2023/04/02 13:08:48;;;;;;;4.67;3.50;;;12.40;87.30;;;;;;5076209;28;20613;-59
2023/04/02 13:11:15;;;;;;;9.20;3.73;;;12.40;87.80;;;;;;5076032;28;20448;-57
2023/04/02 13:13:47;;;;;;;7.27;3.77;;;12.30;88.60;;;;;;5075751;28;20977;-58
2023/04/02 13:16:26;;;;;;;3.47;3.13;;;12.40;88.00;;;;;;5075852;28;20817;-58
2023/04/02 13:19:20;;;;;;;3.60;3.30;;;12.30;86.50;;;;;;5075989;28;20850;-58
2023/04/02 13:21:47;;;;;;;5.63;3.43;;;12.20;86.00;;;;;;5075692;28;20464;-58